This is the latest recevied weather packets stored in our database for station/object KA3ZXO. If no packets are shown the sender has not sent any weather packets the latest 1 day(s).
| Time | Temp. | Humidity | Pressure | Rain* | Wind** | Luminosity | Snow |
|---|---|---|---|---|---|---|---|
| 1778009522 | 30° C | 33% | 1011.2 hPa | 0 mm | 0 m/s | 539 W/m² | - |
| 1778008917 | 30° C | 34% | 1011.4 hPa | 0 mm | 0.45 m/s, 150° | 545 W/m² | - |
| 1778008314 | 29.44° C | 34% | 1011.7 hPa | 0 mm | 0 m/s | 590 W/m² | - |
| 1778007709 | 30° C | 34% | 1011.6 hPa | 0 mm | 1.79 m/s, 332° | 588 W/m² | - |
| 1778007108 | 29.44° C | 35% | 1011.8 hPa | 0 mm | 0.45 m/s, 159° | 598 W/m² | - |
| 1778006508 | 29.44° C | 34% | 1011.8 hPa | 0 mm | 0.89 m/s, 323° | 627 W/m² | - |
| 1778005908 | 28.89° C | 35% | 1012 hPa | 0 mm | 0.89 m/s, 166° | 632 W/m² | - |
| 1778005308 | 28.33° C | 36% | 1012.2 hPa | 0 mm | 0.89 m/s, 125° | 660 W/m² | - |
| 1778004707 | 28.33° C | 38% | 1012.3 hPa | 0 mm | 0.45 m/s, 145° | 678 W/m² | - |
| 1778004107 | 27.78° C | 37% | 1012.5 hPa | 0 mm | 1.34 m/s, 238° | 96 W/m² | - |
| 1778003505 | 27.78° C | 38% | 1012.3 hPa | 0 mm | 0 m/s | 71 W/m² | - |
| 1778002903 | 27.78° C | 39% | 1012.3 hPa | 0 mm | 0.89 m/s, 170° | 290 W/m² | - |
| 1778002303 | 27.22° C | 41% | 1012.4 hPa | 0 mm | 0.45 m/s, 176° | 63 W/m² | - |
| 1778001703 | 27.22° C | 42% | 1012.4 hPa | 0 mm | 0 m/s | 44 W/m² | - |
| 1778001101 | 26.67° C | 41% | 1012.6 hPa | 0 mm | 0 m/s | 47 W/m² | - |
| 1778000500 | 26.67° C | 43% | 1012.8 hPa | 0 mm | 0.45 m/s, 130° | 52 W/m² | - |
| 1777999897 | 26.67° C | 42% | 1013 hPa | 0 mm | 1.34 m/s, 158° | 141 W/m² | - |
| 1777999296 | 25.56° C | 44% | 1013 hPa | 0 mm | 0.45 m/s, 161° | 280 W/m² | - |
| 1777998691 | 26.11° C | 45% | 1013.3 hPa | 0 mm | 0.89 m/s, 233° | 42 W/m² | - |
| 1777998086 | 25.56° C | 47% | 1013.3 hPa | 0 mm | 0.45 m/s, 219° | 49 W/m² | - |
| 1777997486 | 25° C | 47% | 1013.3 hPa | 0 mm | 0.45 m/s, 239° | 52 W/m² | - |
| 1777996881 | 25° C | 47% | 1013.5 hPa | 0 mm | 0 m/s | 39 W/m² | - |
| 1777996279 | 24.44° C | 48% | 1013.8 hPa | 0 mm | 0.45 m/s, 187° | 35 W/m² | - |
| 1777995677 | 23.89° C | 50% | 1013.7 hPa | 0 mm | 0.89 m/s, 158° | 118 W/m² | - |
| 1777995072 | 23.89° C | 51% | 1013.4 hPa | 0 mm | 0.45 m/s, 225° | 33 W/m² | - |
* Rain latest hour (hover to see other rain measurements)
** Current wind speed in m/s (hover to see current wind gust speed)